sensor_id;sensor_type;location;lat;lon;timestamp;pressure;altitude;pressure_sealevel;temperature;humidity
73501;BME280;61721;42.206;25.320;2023-08-07T00:00:39;98646.09;;;23.21;56.52
73501;BME280;61721;42.206;25.320;2023-08-07T00:03:06;98641.91;;;23.04;56.37
73501;BME280;61721;42.206;25.320;2023-08-07T00:05:33;98649.88;;;23.00;55.88
73501;BME280;61721;42.206;25.320;2023-08-07T00:08:01;98651.00;;;23.14;55.20
73501;BME280;61721;42.206;25.320;2023-08-07T00:10:28;98650.44;;;23.02;53.90
73501;BME280;61721;42.206;25.320;2023-08-07T00:12:56;98652.66;;;23.15;53.12
73501;BME280;61721;42.206;25.320;2023-08-07T00:15:23;98656.72;;;22.97;52.78
73501;BME280;61721;42.206;25.320;2023-08-07T00:17:50;98661.28;;;22.77;53.04
73501;BME280;61721;42.206;25.320;2023-08-07T00:20:17;98670.47;;;23.03;52.45
73501;BME280;61721;42.206;25.320;2023-08-07T00:22:44;98666.03;;;22.91;52.00
73501;BME280;61721;42.206;25.320;2023-08-07T00:25:13;98676.44;;;22.79;52.15
73501;BME280;61721;42.206;25.320;2023-08-07T00:27:40;98677.91;;;23.07;50.90
73501;BME280;61721;42.206;25.320;2023-08-07T00:30:08;98681.53;;;23.23;50.72
73501;BME280;61721;42.206;25.320;2023-08-07T00:32:35;98685.72;;;23.56;50.26
73501;BME280;61721;42.206;25.320;2023-08-07T00:35:03;98680.38;;;23.04;50.29
73501;BME280;61721;42.206;25.320;2023-08-07T00:37:30;98690.03;;;23.26;50.27
73501;BME280;61721;42.206;25.320;2023-08-07T00:39:57;98695.06;;;23.60;49.81
73501;BME280;61721;42.206;25.320;2023-08-07T00:42:25;98685.97;;;23.39;49.99
73501;BME280;61721;42.206;25.320;2023-08-07T00:44:52;98691.44;;;23.34;49.55
73501;BME280;61721;42.206;25.320;2023-08-07T00:47:19;98693.13;;;23.55;48.25
73501;BME280;61721;42.206;25.320;2023-08-07T00:49:47;98690.31;;;23.25;48.42
73501;BME280;61721;42.206;25.320;2023-08-07T00:52:15;98693.63;;;23.27;48.68
73501;BME280;61721;42.206;25.320;2023-08-07T00:54:42;98705.16;;;23.24;48.29
73501;BME280;61721;42.206;25.320;2023-08-07T00:57:11;98707.69;;;23.56;47.45
73501;BME280;61721;42.206;25.320;2023-08-07T00:59:42;98707.00;;;23.08;48.35
73501;BME280;61721;42.206;25.320;2023-08-07T01:02:10;98719.78;;;23.60;47.73
73501;BME280;61721;42.206;25.320;2023-08-07T01:04:39;98720.09;;;23.74;47.61
73501;BME280;61721;42.206;25.320;2023-08-07T01:07:06;98722.28;;;23.67;47.45
73501;BME280;61721;42.206;25.320;2023-08-07T01:09:33;98724.50;;;23.80;46.38
73501;BME280;61721;42.206;25.320;2023-08-07T01:12:10;98726.16;;;23.76;46.59
73501;BME280;61721;42.206;25.320;2023-08-07T01:14:49;98729.16;;;23.69;47.03
73501;BME280;61721;42.206;25.320;2023-08-07T01:17:20;98731.34;;;23.62;47.52
73501;BME280;61721;42.206;25.320;2023-08-07T01:19:50;98736.00;;;23.56;47.72
73501;BME280;61721;42.206;25.320;2023-08-07T01:22:19;98733.84;;;23.79;46.97
73501;BME280;61721;42.206;25.320;2023-08-07T01:24:48;98744.31;;;23.92;46.51
73501;BME280;61721;42.206;25.320;2023-08-07T01:30:11;98741.50;;;23.61;47.24
73501;BME280;61721;42.206;25.320;2023-08-07T01:32:48;98745.00;;;23.42;47.43
73501;BME280;61721;42.206;25.320;2023-08-07T01:35:17;98746.47;;;23.70;46.59
73501;BME280;61721;42.206;25.320;2023-08-07T01:37:50;98738.97;;;23.50;47.21
73501;BME280;61721;42.206;25.320;2023-08-07T01:40:18;98741.34;;;23.06;47.45
73501;BME280;61721;42.206;25.320;2023-08-07T01:42:47;98748.28;;;22.76;48.03
73501;BME280;61721;42.206;25.320;2023-08-07T01:45:14;98759.91;;;22.88;48.07
73501;BME280;61721;42.206;25.320;2023-08-07T01:47:48;98752.50;;;22.89;48.01
73501;BME280;61721;42.206;25.320;2023-08-07T01:50:15;98760.53;;;23.01;48.04
73501;BME280;61721;42.206;25.320;2023-08-07T01:52:42;98763.34;;;23.16;47.54
73501;BME280;61721;42.206;25.320;2023-08-07T01:55:11;98758.00;;;23.61;46.76
73501;BME280;61721;42.206;25.320;2023-08-07T01:57:38;98767.56;;;23.49;47.19
73501;BME280;61721;42.206;25.320;2023-08-07T02:00:06;98765.69;;;23.59;46.42
73501;BME280;61721;42.206;25.320;2023-08-07T02:02:33;98757.91;;;23.26;47.00
73501;BME280;61721;42.206;25.320;2023-08-07T02:05:01;98763.88;;;22.65;48.27
73501;BME280;61721;42.206;25.320;2023-08-07T02:07:28;98773.16;;;22.96;47.68
73501;BME280;61721;42.206;25.320;2023-08-07T02:09:55;98765.28;;;22.73;48.60
73501;BME280;61721;42.206;25.320;2023-08-07T02:12:23;98771.56;;;22.26;49.18
73501;BME280;61721;42.206;25.320;2023-08-07T02:14:51;98773.94;;;22.92;48.67
73501;BME280;61721;42.206;25.320;2023-08-07T02:17:20;98769.06;;;22.62;48.62
73501;BME280;61721;42.206;25.320;2023-08-07T02:19:47;98770.13;;;22.19;49.86
73501;BME280;61721;42.206;25.320;2023-08-07T02:22:14;98774.13;;;22.06;50.53
73501;BME280;61721;42.206;25.320;2023-08-07T02:24:40;98769.81;;;22.15;50.50
73501;BME280;61721;42.206;25.320;2023-08-07T02:27:07;98776.44;;;21.65;51.79
73501;BME280;61721;42.206;25.320;2023-08-07T02:29:36;98774.72;;;21.59;52.04
73501;BME280;61721;42.206;25.320;2023-08-07T02:32:03;98771.88;;;21.49;52.28
73501;BME280;61721;42.206;25.320;2023-08-07T02:34:31;98770.69;;;21.67;52.25
73501;BME280;61721;42.206;25.320;2023-08-07T02:36:59;98783.69;;;21.77;51.58
73501;BME280;61721;42.206;25.320;2023-08-07T02:39:26;98789.25;;;21.87;51.88
73501;BME280;61721;42.206;25.320;2023-08-07T02:41:53;98790.69;;;21.41;52.62
73501;BME280;61721;42.206;25.320;2023-08-07T02:44:20;98805.06;;;21.53;52.70
73501;BME280;61721;42.206;25.320;2023-08-07T02:46:48;98799.72;;;21.41;53.03
73501;BME280;61721;42.206;25.320;2023-08-07T02:49:15;98794.31;;;21.46;52.76
73501;BME280;61721;42.206;25.320;2023-08-07T02:51:42;98804.81;;;21.32;53.41
73501;BME280;61721;42.206;25.320;2023-08-07T02:54:10;98808.25;;;21.45;52.43
73501;BME280;61721;42.206;25.320;2023-08-07T02:56:37;98808.06;;;21.51;52.40
73501;BME280;61721;42.206;25.320;2023-08-07T02:59:04;98804.06;;;21.86;52.05
73501;BME280;61721;42.206;25.320;2023-08-07T03:01:31;98810.66;;;21.19;53.59
73501;BME280;61721;42.206;25.320;2023-08-07T03:04:00;98817.53;;;21.65;53.02
73501;BME280;61721;42.206;25.320;2023-08-07T03:06:27;98821.69;;;21.46;53.42
73501;BME280;61721;42.206;25.320;2023-08-07T03:08:54;98818.06;;;21.89;52.02
73501;BME280;61721;42.206;25.320;2023-08-07T03:11:21;98817.38;;;21.77;51.80
73501;BME280;61721;42.206;25.320;2023-08-07T03:13:48;98833.22;;;21.70;52.39
73501;BME280;61721;42.206;25.320;2023-08-07T03:16:15;98832.34;;;21.43;53.50
73501;BME280;61721;42.206;25.320;2023-08-07T03:18:42;98831.81;;;21.67;52.82
73501;BME280;61721;42.206;25.320;2023-08-07T03:21:11;98828.03;;;21.74;52.31
73501;BME280;61721;42.206;25.320;2023-08-07T03:23:38;98846.88;;;21.92;51.91
73501;BME280;61721;42.206;25.320;2023-08-07T03:26:06;98851.38;;;21.32;53.32
73501;BME280;61721;42.206;25.320;2023-08-07T03:28:34;98840.94;;;21.51;52.66
73501;BME280;61721;42.206;25.320;2023-08-07T03:31:01;98832.91;;;21.23;53.16
73501;BME280;61721;42.206;25.320;2023-08-07T03:33:29;98842.34;;;21.15;53.76
73501;BME280;61721;42.206;25.320;2023-08-07T03:35:56;98840.13;;;21.12;53.95
73501;BME280;61721;42.206;25.320;2023-08-07T03:38:25;98840.09;;;20.90;54.32
73501;BME280;61721;42.206;25.320;2023-08-07T03:40:52;98840.00;;;20.85;54.62
73501;BME280;61721;42.206;25.320;2023-08-07T03:43:19;98845.44;;;21.02;54.73
73501;BME280;61721;42.206;25.320;2023-08-07T03:45:46;98854.38;;;21.14;53.79
73501;BME280;61721;42.206;25.320;2023-08-07T03:48:13;98852.56;;;21.85;52.28
73501;BME280;61721;42.206;25.320;2023-08-07T03:50:40;98852.00;;;21.61;52.12
73501;BME280;61721;42.206;25.320;2023-08-07T03:53:08;98857.53;;;21.23;53.57
73501;BME280;61721;42.206;25.320;2023-08-07T03:55:36;98859.97;;;21.63;52.65
73501;BME280;61721;42.206;25.320;2023-08-07T03:58:03;98854.69;;;21.56;53.13
73501;BME280;61721;42.206;25.320;2023-08-07T04:00:30;98867.13;;;21.64;52.48
73501;BME280;61721;42.206;25.320;2023-08-07T04:02:57;98861.38;;;21.65;52.43
73501;BME280;61721;42.206;25.320;2023-08-07T04:05:24;98864.13;;;21.65;52.36
73501;BME280;61721;42.206;25.320;2023-08-07T04:07:51;98866.47;;;21.57;52.67
73501;BME280;61721;42.206;25.320;2023-08-07T04:10:18;98862.84;;;21.73;52.82
73501;BME280;61721;42.206;25.320;2023-08-07T04:12:47;98866.56;;;21.89;52.65
73501;BME280;61721;42.206;25.320;2023-08-07T04:15:15;98867.72;;;21.93;52.54
73501;BME280;61721;42.206;25.320;2023-08-07T04:17:42;98874.56;;;21.08;54.60
73501;BME280;61721;42.206;25.320;2023-08-07T04:20:09;98886.66;;;21.73;53.10
73501;BME280;61721;42.206;25.320;2023-08-07T04:22:36;98892.34;;;21.88;52.78
73501;BME280;61721;42.206;25.320;2023-08-07T04:25:04;98891.41;;;22.26;52.24
73501;BME280;61721;42.206;25.320;2023-08-07T04:27:31;98892.38;;;22.15;52.36
73501;BME280;61721;42.206;25.320;2023-08-07T04:30:00;98907.44;;;22.12;52.85
73501;BME280;61721;42.206;25.320;2023-08-07T04:32:32;98911.59;;;21.71;53.81
73501;BME280;61721;42.206;25.320;2023-08-07T04:34:59;98902.19;;;21.23;54.94
73501;BME280;61721;42.206;25.320;2023-08-07T04:37:27;98897.94;;;21.16;54.92
73501;BME280;61721;42.206;25.320;2023-08-07T04:39:55;98902.25;;;21.28;54.81
73501;BME280;61721;42.206;25.320;2023-08-07T04:42:22;98903.16;;;21.34;55.19
73501;BME280;61721;42.206;25.320;2023-08-07T04:44:49;98902.28;;;21.50;55.63
73501;BME280;61721;42.206;25.320;2023-08-07T04:47:18;98902.06;;;21.35;54.94
73501;BME280;61721;42.206;25.320;2023-08-07T04:49:45;98900.22;;;21.41;54.78
73501;BME280;61721;42.206;25.320;2023-08-07T04:52:12;98886.84;;;21.22;55.86
73501;BME280;61721;42.206;25.320;2023-08-07T04:54:39;98892.31;;;21.05;55.19
73501;BME280;61721;42.206;25.320;2023-08-07T04:57:06;98899.28;;;21.30;55.14
73501;BME280;61721;42.206;25.320;2023-08-07T04:59:33;98892.53;;;21.37;55.19
73501;BME280;61721;42.206;25.320;2023-08-07T05:02:01;98907.69;;;21.67;54.10
73501;BME280;61721;42.206;25.320;2023-08-07T05:04:32;98914.00;;;21.67;54.09
73501;BME280;61721;42.206;25.320;2023-08-07T05:07:00;98914.75;;;21.41;54.46
73501;BME280;61721;42.206;25.320;2023-08-07T05:09:27;98914.97;;;21.56;54.11
73501;BME280;61721;42.206;25.320;2023-08-07T05:11:54;98911.53;;;21.66;53.25
73501;BME280;61721;42.206;25.320;2023-08-07T05:14:21;98920.94;;;21.53;53.78
73501;BME280;61721;42.206;25.320;2023-08-07T05:16:50;98905.78;;;21.67;53.25
73501;BME280;61721;42.206;25.320;2023-08-07T05:19:17;98903.50;;;21.59;53.25
73501;BME280;61721;42.206;25.320;2023-08-07T05:21:46;98906.28;;;21.86;52.79
73501;BME280;61721;42.206;25.320;2023-08-07T05:24:16;98908.78;;;21.88;51.95
73501;BME280;61721;42.206;25.320;2023-08-07T05:26:43;98912.09;;;21.90;51.51
73501;BME280;61721;42.206;25.320;2023-08-07T05:29:11;98929.31;;;22.07;51.58
73501;BME280;61721;42.206;25.320;2023-08-07T05:31:38;98921.31;;;22.27;51.36
73501;BME280;61721;42.206;25.320;2023-08-07T05:34:05;98923.25;;;22.05;51.05
73501;BME280;61721;42.206;25.320;2023-08-07T05:36:33;98923.91;;;22.12;50.86
73501;BME280;61721;42.206;25.320;2023-08-07T05:39:03;98930.22;;;22.40;50.38
73501;BME280;61721;42.206;25.320;2023-08-07T05:41:30;98927.81;;;22.75;49.78
73501;BME280;61721;42.206;25.320;2023-08-07T05:43:58;98932.75;;;22.78;49.90
73501;BME280;61721;42.206;25.320;2023-08-07T05:46:25;98938.25;;;22.78;49.81
73501;BME280;61721;42.206;25.320;2023-08-07T05:48:52;98939.81;;;22.69;49.75
73501;BME280;61721;42.206;25.320;2023-08-07T05:51:19;98950.81;;;22.69;49.20
73501;BME280;61721;42.206;25.320;2023-08-07T05:53:46;98946.44;;;22.73;49.17
73501;BME280;61721;42.206;25.320;2023-08-07T05:56:14;98948.66;;;23.03;48.56
73501;BME280;61721;42.206;25.320;2023-08-07T05:58:43;98958.25;;;23.01;47.75
73501;BME280;61721;42.206;25.320;2023-08-07T06:01:10;98949.06;;;22.85;48.49
73501;BME280;61721;42.206;25.320;2023-08-07T06:03:38;98950.50;;;22.92;48.27
73501;BME280;61721;42.206;25.320;2023-08-07T06:06:05;98952.09;;;23.25;47.97
73501;BME280;61721;42.206;25.320;2023-08-07T06:08:32;98957.75;;;23.09;47.94
73501;BME280;61721;42.206;25.320;2023-08-07T06:10:59;98958.84;;;23.08;47.97
73501;BME280;61721;42.206;25.320;2023-08-07T06:13:30;98957.53;;;23.15;47.41
73501;BME280;61721;42.206;25.320;2023-08-07T06:15:57;98958.50;;;23.41;47.25
73501;BME280;61721;42.206;25.320;2023-08-07T06:18:24;98960.22;;;23.52;47.51
73501;BME280;61721;42.206;25.320;2023-08-07T06:20:51;98963.66;;;23.75;47.04
73501;BME280;61721;42.206;25.320;2023-08-07T06:23:18;98960.38;;;23.78;47.33
73501;BME280;61721;42.206;25.320;2023-08-07T06:25:45;98960.38;;;23.78;46.81
73501;BME280;61721;42.206;25.320;2023-08-07T06:28:12;98970.34;;;23.89;45.86
73501;BME280;61721;42.206;25.320;2023-08-07T06:30:41;98973.59;;;23.81;46.09
73501;BME280;61721;42.206;25.320;2023-08-07T06:33:08;98971.47;;;23.98;45.69
73501;BME280;61721;42.206;25.320;2023-08-07T06:35:37;98968.97;;;23.91;45.39
73501;BME280;61721;42.206;25.320;2023-08-07T06:38:05;98971.63;;;24.34;44.78
73501;BME280;61721;42.206;25.320;2023-08-07T06:40:32;98979.31;;;24.26;44.68
73501;BME280;61721;42.206;25.320;2023-08-07T06:43:01;98969.19;;;24.42;44.28
73501;BME280;61721;42.206;25.320;2023-08-07T06:45:28;98973.81;;;24.32;44.46
73501;BME280;61721;42.206;25.320;2023-08-07T06:47:57;98966.41;;;24.37;44.19
73501;BME280;61721;42.206;25.320;2023-08-07T06:50:24;98970.03;;;24.58;43.65
73501;BME280;61721;42.206;25.320;2023-08-07T06:52:51;98967.56;;;24.56;43.08
73501;BME280;61721;42.206;25.320;2023-08-07T06:55:19;98973.06;;;24.56;43.22
73501;BME280;61721;42.206;25.320;2023-08-07T06:57:47;98967.84;;;24.65;42.59
73501;BME280;61721;42.206;25.320;2023-08-07T07:00:15;98967.03;;;24.65;42.77
73501;BME280;61721;42.206;25.320;2023-08-07T07:02:42;98967.03;;;24.65;42.71
73501;BME280;61721;42.206;25.320;2023-08-07T07:05:11;98963.19;;;24.86;42.27
73501;BME280;61721;42.206;25.320;2023-08-07T07:07:38;98962.38;;;25.06;41.29
73501;BME280;61721;42.206;25.320;2023-08-07T07:10:06;98975.84;;;24.87;41.39
73501;BME280;61721;42.206;25.320;2023-08-07T07:12:33;98983.03;;;25.34;41.02
73501;BME280;61721;42.206;25.320;2023-08-07T07:15:00;98990.50;;;25.23;39.69
73501;BME280;61721;42.206;25.320;2023-08-07T07:17:27;98981.66;;;25.11;40.66
73501;BME280;61721;42.206;25.320;2023-08-07T07:19:54;98988.00;;;25.42;39.74
73501;BME280;61721;42.206;25.320;2023-08-07T07:22:23;98987.72;;;25.38;40.57
73501;BME280;61721;42.206;25.320;2023-08-07T07:24:50;98988.25;;;25.50;40.65
73501;BME280;61721;42.206;25.320;2023-08-07T07:27:17;98990.97;;;25.81;39.61
73501;BME280;61721;42.206;25.320;2023-08-07T07:29:45;98994.81;;;25.90;40.29
73501;BME280;61721;42.206;25.320;2023-08-07T07:32:12;98988.81;;;25.37;40.17
73501;BME280;61721;42.206;25.320;2023-08-07T07:34:39;98986.28;;;25.61;40.13
73501;BME280;61721;42.206;25.320;2023-08-07T07:37:06;98980.19;;;25.84;38.96
73501;BME280;61721;42.206;25.320;2023-08-07T07:39:35;98978.22;;;25.95;39.76
73501;BME280;61721;42.206;25.320;2023-08-07T07:42:03;98980.47;;;25.88;39.64
73501;BME280;61721;42.206;25.320;2023-08-07T07:44:30;98978.28;;;25.80;38.87
73501;BME280;61721;42.206;25.320;2023-08-07T07:46:59;98979.84;;;26.01;38.72
73501;BME280;61721;42.206;25.320;2023-08-07T07:49:26;98981.28;;;25.88;39.36
73501;BME280;61721;42.206;25.320;2023-08-07T07:51:53;98985.84;;;26.13;38.42
73501;BME280;61721;42.206;25.320;2023-08-07T07:54:28;98985.31;;;26.11;38.95
73501;BME280;61721;42.206;25.320;2023-08-07T07:56:57;98979.25;;;26.09;38.52
73501;BME280;61721;42.206;25.320;2023-08-07T07:59:24;98978.56;;;26.43;38.03
73501;BME280;61721;42.206;25.320;2023-08-07T08:01:58;98980.50;;;26.42;38.33
73501;BME280;61721;42.206;25.320;2023-08-07T08:04:25;98980.06;;;26.69;38.07
73501;BME280;61721;42.206;25.320;2023-08-07T08:06:53;98975.28;;;26.80;36.33
73501;BME280;61721;42.206;25.320;2023-08-07T08:09:20;98982.34;;;26.57;36.74
73501;BME280;61721;42.206;25.320;2023-08-07T08:11:47;98967.34;;;26.68;36.50
73501;BME280;61721;42.206;25.320;2023-08-07T08:14:15;98979.50;;;26.67;36.96
73501;BME280;61721;42.206;25.320;2023-08-07T08:16:43;98972.81;;;26.78;35.33
73501;BME280;61721;42.206;25.320;2023-08-07T08:19:10;98966.41;;;27.22;35.53
73501;BME280;61721;42.206;25.320;2023-08-07T08:21:37;98968.59;;;26.86;35.91
73501;BME280;61721;42.206;25.320;2023-08-07T08:24:04;98968.78;;;27.34;35.87
73501;BME280;61721;42.206;25.320;2023-08-07T08:26:31;98966.53;;;27.07;34.99
73501;BME280;61721;42.206;25.320;2023-08-07T08:28:59;98971.31;;;27.30;34.93
73501;BME280;61721;42.206;25.320;2023-08-07T08:31:33;98967.84;;;27.43;34.65
73501;BME280;61721;42.206;25.320;2023-08-07T08:34:00;98966.25;;;27.37;35.46
73501;BME280;61721;42.206;25.320;2023-08-07T08:36:28;98963.78;;;27.36;33.67
73501;BME280;61721;42.206;25.320;2023-08-07T08:38:55;98973.56;;;27.81;34.30
73501;BME280;61721;42.206;25.320;2023-08-07T08:41:23;98971.91;;;28.04;34.10
73501;BME280;61721;42.206;25.320;2023-08-07T08:43:52;98961.75;;;28.18;33.65
73501;BME280;61721;42.206;25.320;2023-08-07T08:46:24;98969.81;;;27.72;32.18
73501;BME280;61721;42.206;25.320;2023-08-07T08:48:56;98955.78;;;27.87;32.52
73501;BME280;61721;42.206;25.320;2023-08-07T08:51:24;98952.75;;;28.31;32.15
73501;BME280;61721;42.206;25.320;2023-08-07T08:53:53;98943.47;;;28.41;30.36
73501;BME280;61721;42.206;25.320;2023-08-07T08:56:22;98940.63;;;28.46;28.62
73501;BME280;61721;42.206;25.320;2023-08-07T08:58:50;98930.09;;;28.05;28.14
73501;BME280;61721;42.206;25.320;2023-08-07T09:01:18;98933.16;;;28.28;28.09
73501;BME280;61721;42.206;25.320;2023-08-07T09:03:45;98930.84;;;28.54;26.79
73501;BME280;61721;42.206;25.320;2023-08-07T09:06:14;98933.81;;;28.57;26.25
73501;BME280;61721;42.206;25.320;2023-08-07T09:08:43;98927.31;;;28.99;26.70
73501;BME280;61721;42.206;25.320;2023-08-07T09:11:10;98933.16;;;28.79;24.87
73501;BME280;61721;42.206;25.320;2023-08-07T09:13:40;98921.72;;;28.86;25.12
73501;BME280;61721;42.206;25.320;2023-08-07T09:16:08;98934.34;;;29.11;25.26
73501;BME280;61721;42.206;25.320;2023-08-07T09:18:37;98936.31;;;29.24;25.89
73501;BME280;61721;42.206;25.320;2023-08-07T09:21:04;98932.63;;;29.28;24.78
73501;BME280;61721;42.206;25.320;2023-08-07T09:23:33;98933.69;;;29.00;24.80
73501;BME280;61721;42.206;25.320;2023-08-07T09:26:00;98925.81;;;29.07;25.56
73501;BME280;61721;42.206;25.320;2023-08-07T09:28:28;98917.91;;;29.14;24.76
73501;BME280;61721;42.206;25.320;2023-08-07T09:30:56;98928.03;;;29.37;25.04
73501;BME280;61721;42.206;25.320;2023-08-07T09:33:26;98927.88;;;29.48;24.67
73501;BME280;61721;42.206;25.320;2023-08-07T09:35:57;98917.72;;;29.57;24.58
73501;BME280;61721;42.206;25.320;2023-08-07T09:38:28;98926.66;;;29.67;23.71
73501;BME280;61721;42.206;25.320;2023-08-07T09:40:58;98919.03;;;29.46;24.02
73501;BME280;61721;42.206;25.320;2023-08-07T09:43:25;98917.59;;;29.76;23.69
73501;BME280;61721;42.206;25.320;2023-08-07T09:45:54;98928.91;;;29.79;23.17
73501;BME280;61721;42.206;25.320;2023-08-07T09:48:28;98924.19;;;29.93;23.63
73501;BME280;61721;42.206;25.320;2023-08-07T09:51:00;98916.97;;;30.20;23.86
73501;BME280;61721;42.206;25.320;2023-08-07T09:53:30;98914.13;;;30.47;23.86
73501;BME280;61721;42.206;25.320;2023-08-07T09:55:59;98907.97;;;30.00;23.36
73501;BME280;61721;42.206;25.320;2023-08-07T09:58:26;98916.34;;;30.23;21.56
73501;BME280;61721;42.206;25.320;2023-08-07T10:00:54;98897.50;;;30.33;21.21
73501;BME280;61721;42.206;25.320;2023-08-07T10:03:25;98913.22;;;30.38;22.24
73501;BME280;61721;42.206;25.320;2023-08-07T10:05:52;98907.78;;;30.33;21.80
73501;BME280;61721;42.206;25.320;2023-08-07T10:08:21;98904.47;;;30.81;21.56
73501;BME280;61721;42.206;25.320;2023-08-07T10:10:48;98902.00;;;30.79;20.91
73501;BME280;61721;42.206;25.320;2023-08-07T10:13:17;98902.19;;;30.83;21.03
73501;BME280;61721;42.206;25.320;2023-08-07T10:15:44;98899.97;;;30.71;20.59
73501;BME280;61721;42.206;25.320;2023-08-07T10:18:13;98905.34;;;30.54;20.87
73501;BME280;61721;42.206;25.320;2023-08-07T10:20:40;98909.19;;;30.44;20.10
73501;BME280;61721;42.206;25.320;2023-08-07T10:23:10;98903.06;;;30.70;20.22
73501;BME280;61721;42.206;25.320;2023-08-07T10:25:40;98893.91;;;30.91;20.06
73501;BME280;61721;42.206;25.320;2023-08-07T10:28:10;98887.25;;;31.01;20.32
73501;BME280;61721;42.206;25.320;2023-08-07T10:30:41;98889.44;;;31.13;20.49
73501;BME280;61721;42.206;25.320;2023-08-07T10:33:12;98886.75;;;30.99;20.30
73501;BME280;61721;42.206;25.320;2023-08-07T10:35:45;98883.47;;;31.19;20.42
73501;BME280;61721;42.206;25.320;2023-08-07T10:38:13;98882.47;;;30.93;20.75
73501;BME280;61721;42.206;25.320;2023-08-07T10:40:59;98882.97;;;30.95;21.04
73501;BME280;61721;42.206;25.320;2023-08-07T10:43:28;98874.31;;;31.27;19.68
73501;BME280;61721;42.206;25.320;2023-08-07T10:46:03;98878.16;;;31.49;20.05
73501;BME280;61721;42.206;25.320;2023-08-07T10:48:38;98871.94;;;31.43;19.11
73501;BME280;61721;42.206;25.320;2023-08-07T10:51:08;98876.16;;;31.41;19.62
73501;BME280;61721;42.206;25.320;2023-08-07T10:53:36;98869.97;;;31.13;19.41
73501;BME280;61721;42.206;25.320;2023-08-07T10:56:04;98872.97;;;31.16;19.53
73501;BME280;61721;42.206;25.320;2023-08-07T10:58:34;98868.97;;;31.40;19.64
73501;BME280;61721;42.206;25.320;2023-08-07T11:01:19;98864.16;;;31.23;19.48
73501;BME280;61721;42.206;25.320;2023-08-07T11:03:51;98858.78;;;31.35;19.97
73501;BME280;61721;42.206;25.320;2023-08-07T11:06:22;98860.97;;;30.85;19.91
73501;BME280;61721;42.206;25.320;2023-08-07T11:08:53;98854.41;;;31.43;19.93
73501;BME280;61721;42.206;25.320;2023-08-07T11:11:29;98856.91;;;31.53;19.03
73501;BME280;61721;42.206;25.320;2023-08-07T11:13:56;98848.19;;;31.85;19.47
73501;BME280;61721;42.206;25.320;2023-08-07T11:16:25;98848.00;;;31.82;19.50
73501;BME280;61721;42.206;25.320;2023-08-07T11:18:53;98841.97;;;31.97;19.94
73501;BME280;61721;42.206;25.320;2023-08-07T11:21:21;98843.69;;;31.67;20.02
73501;BME280;61721;42.206;25.320;2023-08-07T11:23:48;98849.19;;;31.50;20.44
73501;BME280;61721;42.206;25.320;2023-08-07T11:26:15;98837.72;;;32.00;20.77
73501;BME280;61721;42.206;25.320;2023-08-07T11:28:43;98840.03;;;32.15;20.89
73501;BME280;61721;42.206;25.320;2023-08-07T11:31:10;98837.81;;;31.69;21.27
73501;BME280;61721;42.206;25.320;2023-08-07T11:33:40;98834.28;;;32.20;21.29
73501;BME280;61721;42.206;25.320;2023-08-07T11:36:10;98829.06;;;31.53;21.05
73501;BME280;61721;42.206;25.320;2023-08-07T11:38:40;98833.78;;;31.92;21.48
73501;BME280;61721;42.206;25.320;2023-08-07T11:41:09;98836.16;;;31.68;21.26
73501;BME280;61721;42.206;25.320;2023-08-07T11:43:36;98825.06;;;31.76;21.65
73501;BME280;61721;42.206;25.320;2023-08-07T11:46:04;98830.97;;;31.35;20.63
73501;BME280;61721;42.206;25.320;2023-08-07T11:48:34;98820.81;;;31.70;20.70
73501;BME280;61721;42.206;25.320;2023-08-07T11:51:04;98821.81;;;31.91;20.56
73501;BME280;61721;42.206;25.320;2023-08-07T11:53:32;98818.53;;;31.89;20.79
73501;BME280;61721;42.206;25.320;2023-08-07T11:56:04;98814.47;;;32.04;21.37
73501;BME280;61721;42.206;25.320;2023-08-07T11:58:34;98813.94;;;31.85;21.54
73501;BME280;61721;42.206;25.320;2023-08-07T12:01:04;98812.88;;;32.29;22.79
73501;BME280;61721;42.206;25.320;2023-08-07T12:03:33;98816.72;;;31.85;21.69
73501;BME280;61721;42.206;25.320;2023-08-07T12:06:06;98809.38;;;31.98;20.72
73501;BME280;61721;42.206;25.320;2023-08-07T12:08:34;98807.75;;;32.14;21.14
73501;BME280;61721;42.206;25.320;2023-08-07T12:11:02;98810.66;;;31.74;21.22
73501;BME280;61721;42.206;25.320;2023-08-07T12:13:30;98812.81;;;31.38;21.08
73501;BME280;61721;42.206;25.320;2023-08-07T12:16:01;98805.72;;;31.71;21.34
73501;BME280;61721;42.206;25.320;2023-08-07T12:18:28;98808.03;;;31.78;21.74
73501;BME280;61721;42.206;25.320;2023-08-07T12:20:59;98808.22;;;31.90;21.37
73501;BME280;61721;42.206;25.320;2023-08-07T12:23:28;98808.56;;;31.97;20.75
73501;BME280;61721;42.206;25.320;2023-08-07T12:25:55;98812.63;;;31.82;21.22
73501;BME280;61721;42.206;25.320;2023-08-07T12:28:22;98800.53;;;31.95;21.49
73501;BME280;61721;42.206;25.320;2023-08-07T12:30:50;98794.31;;;32.16;20.92
73501;BME280;61721;42.206;25.320;2023-08-07T12:33:18;98794.97;;;32.47;21.66
73501;BME280;61721;42.206;25.320;2023-08-07T12:35:45;98783.34;;;32.45;21.38
73501;BME280;61721;42.206;25.320;2023-08-07T12:38:12;98791.38;;;32.38;21.87
73501;BME280;61721;42.206;25.320;2023-08-07T12:40:42;98792.66;;;32.15;21.66
73501;BME280;61721;42.206;25.320;2023-08-07T12:43:09;98795.13;;;31.90;22.19
73501;BME280;61721;42.206;25.320;2023-08-07T12:45:37;98793.66;;;32.19;21.47
73501;BME280;61721;42.206;25.320;2023-08-07T12:48:04;98792.19;;;32.21;21.39
73501;BME280;61721;42.206;25.320;2023-08-07T12:50:32;98794.63;;;31.97;21.52
73501;BME280;61721;42.206;25.320;2023-08-07T12:53:00;98799.09;;;32.24;21.44
73501;BME280;61721;42.206;25.320;2023-08-07T12:55:27;98786.44;;;32.18;22.02
73501;BME280;61721;42.206;25.320;2023-08-07T12:57:57;98787.63;;;32.34;21.81